Manuel Gual — 3FZC8 — position and weather

sailwx.info

Track history (hours):
 
Tides and Currents Weather Stations Pressure Air Temp Water Temp Dewpoint Dewpoint Depression Visibility Wind Speed Wind Dir Waves Ship Positions

Manuel Gual

Last reported at 2017-Dec-21 02:47 UTC. Time now 2018-Jan-21 10:40 UTC.
Position S 29°14' E 031°49'.
Warning: this ship's position is 31 days out of date.

Length 142 m; draft 9.1 m.

Type: Ship. MMSI: 352997000.

Date/timePositionNaut miles runAvg speedWind from/ knotsBaromVisibWave heightAir tempDewpointWater temp
2017-Dec-21 02:47S 29°14' E 031°49'312.4
2017-Dec-21 02:30S 29°17' E 031°46'612.7
2017-Dec-21 02:00S 29°21' E 031°41'612.8
2017-Dec-21 01:30S 29°26' E 031°36'612.8
2017-Dec-21 01:00S 29°31' E 031°31'612.9
2017-Dec-21 00:30S 29°36' E 031°27'713.3
2017-Dec-21 00:00S 29°41' E 031°23'713.9
2017-Dec-20 23:31S 29°47' E 031°18'714.4
2017-Dec-20 23:01S 29°53' E 031°13'714.6
2017-Dec-20 22:30S 29°59' E 031°08'714.5
2017-Dec-20 22:00S 30°05' E 031°03'714.0
2017-Dec-20 21:31S 30°10' E 030°59'713.6
2017-Dec-20 21:01S 30°16' E 030°54'  
Track history (hours):
 
Tides and Currents Weather Stations Pressure Air Temp Water Temp Dewpoint Dewpoint Depression Visibility Wind Speed Wind Dir Waves Ship Positions

Manuel Gual

Last reported at 2017-Dec-21 02:47 UTC. Time now 2018-Jan-21 10:40 UTC.
Position S 29°14' E 031°49'.
Warning: this ship's position is 31 days out of date.

Length 142 m; draft 9.1 m.

Type: Ship. MMSI: 352997000.

Date/timePositionNaut miles runAvg speedWind from/ knotsBaromVisibWave heightAir tempDewpointWater temp
2017-Dec-21 02:47S 29°14' E 031°49'312.4
2017-Dec-21 02:30S 29°17' E 031°46'612.7
2017-Dec-21 02:00S 29°21' E 031°41'612.8
2017-Dec-21 01:30S 29°26' E 031°36'612.8
2017-Dec-21 01:00S 29°31' E 031°31'612.9
2017-Dec-21 00:30S 29°36' E 031°27'713.3
2017-Dec-21 00:00S 29°41' E 031°23'713.9
2017-Dec-20 23:31S 29°47' E 031°18'714.4
2017-Dec-20 23:01S 29°53' E 031°13'714.6
2017-Dec-20 22:30S 29°59' E 031°08'714.5
2017-Dec-20 22:00S 30°05' E 031°03'714.0
2017-Dec-20 21:31S 30°10' E 030°59'713.6
2017-Dec-20 21:01S 30°16' E 030°54'  

Dump ship's entire track history